createdAt,value
2023-09-20T00:00:37.943Z,31.44
2023-09-20T00:01:40.035Z,31.02
2023-09-20T00:02:43.247Z,31.47
2023-09-20T00:03:46.701Z,31.76
2023-09-20T00:04:49.394Z,31.27
2023-09-20T00:05:52.159Z,31.45
2023-09-20T00:06:54.589Z,31.28
2023-09-20T00:07:56.589Z,31.31
2023-09-20T00:08:59.980Z,31.16
2023-09-20T00:10:12.607Z,31.13
2023-09-20T00:11:16.889Z,31.56
2023-09-20T00:12:19.107Z,31.57
2023-09-20T00:13:21.467Z,31.74
2023-09-20T00:14:23.681Z,31.18
2023-09-20T00:15:25.893Z,31.65
2023-09-20T00:16:30.216Z,31.84
2023-09-20T00:17:35.306Z,31.91
2023-09-20T00:18:38.555Z,31.78
2023-09-20T00:19:41.351Z,31.96
2023-09-20T00:20:44.395Z,31.72
2023-09-20T00:21:47.751Z,31.54
2023-09-20T00:22:51.833Z,31.97
2023-09-20T00:23:54.162Z,32.10
2023-09-20T00:24:57.342Z,31.82
2023-09-20T00:25:59.614Z,31.92
2023-09-20T00:27:02.282Z,32.06
2023-09-20T00:28:07.206Z,31.85
2023-09-20T00:29:10.201Z,31.90
2023-09-20T00:30:20.917Z,32.20
2023-09-20T00:31:22.987Z,31.61
2023-09-20T00:32:25.122Z,32.17
2023-09-20T00:33:31.032Z,31.99
2023-09-20T00:34:34.428Z,31.87
2023-09-20T00:35:41.966Z,32.20
2023-09-20T00:36:45.416Z,32.11
2023-09-20T00:37:47.572Z,32.25
2023-09-20T00:38:50.832Z,32.01
2023-09-20T00:39:55.799Z,31.73
2023-09-20T00:40:58.125Z,32.07
2023-09-20T00:42:03.227Z,31.86
2023-09-20T00:43:07.988Z,31.92
2023-09-20T00:44:10.007Z,32.18
2023-09-20T00:45:14.924Z,32.22
2023-09-20T00:46:18.273Z,32.18
2023-09-20T00:47:21.793Z,32.06
2023-09-20T00:48:24.065Z,32.53
2023-09-20T00:49:26.366Z,32.43
2023-09-20T00:50:34.991Z,32.58
2023-09-20T00:51:38.330Z,32.44
2023-09-20T00:52:54.667Z,32.55
2023-09-20T00:53:59.568Z,32.16
2023-09-20T00:55:04.335Z,32.19
2023-09-20T00:56:11.325Z,32.41
2023-09-20T00:57:13.812Z,32.35
2023-09-20T00:58:18.753Z,32.21
2023-09-20T00:59:22.930Z,32.46
2023-09-20T01:00:28.697Z,32.54
2023-09-20T01:01:31.025Z,32.20
2023-09-20T01:02:35.687Z,32.51
2023-09-20T01:03:38.828Z,32.30
2023-09-20T01:04:42.047Z,32.67
2023-09-20T01:05:48.038Z,32.44
2023-09-20T01:06:51.810Z,32.32
2023-09-20T01:07:57.830Z,32.54
2023-09-20T01:08:59.901Z,32.41
2023-09-20T01:10:01.923Z,32.56
2023-09-20T01:11:05.013Z,32.69
2023-09-20T01:12:07.689Z,32.38
2023-09-20T01:13:11.649Z,32.66
2023-09-20T01:14:13.715Z,32.32
2023-09-20T01:15:15.807Z,32.73
2023-09-20T01:16:17.770Z,32.79
2023-09-20T01:17:19.939Z,32.67
2023-09-20T01:18:22.249Z,32.55
2023-09-20T01:19:24.180Z,32.42
2023-09-20T01:20:27.862Z,32.88
2023-09-20T01:21:29.872Z,32.43
2023-09-20T01:22:31.902Z,32.54
2023-09-20T01:23:34.288Z,32.67
2023-09-20T01:24:38.627Z,32.83
2023-09-20T01:25:41.375Z,32.52
2023-09-20T01:26:49.409Z,32.28
2023-09-20T01:27:57.033Z,32.35
2023-09-20T01:28:59.304Z,32.32
2023-09-20T01:30:01.349Z,32.54
2023-09-20T01:31:06.208Z,32.37
2023-09-20T01:32:08.478Z,32.50
2023-09-20T01:33:11.017Z,32.64
2023-09-20T01:34:13.130Z,32.71
2023-09-20T01:35:18.054Z,32.68
2023-09-20T01:36:20.625Z,32.34
2023-09-20T01:37:22.607Z,32.69
2023-09-20T01:38:26.964Z,32.69
2023-09-20T01:39:29.045Z,32.95
2023-09-20T01:40:34.343Z,32.32
2023-09-20T01:41:37.368Z,32.40
2023-09-20T01:42:39.636Z,32.62
2023-09-20T01:43:42.349Z,32.47
2023-09-20T01:44:44.302Z,32.42
2023-09-20T01:45:46.401Z,32.56
2023-09-20T01:46:50.062Z,32.58
2023-09-20T01:47:55.795Z,32.54
2023-09-20T01:49:00.065Z,32.35
2023-09-20T01:50:04.634Z,32.67
2023-09-20T01:51:06.707Z,32.64
2023-09-20T01:52:10.155Z,32.79
2023-09-20T01:53:13.008Z,32.52
2023-09-20T01:54:19.390Z,32.62
2023-09-20T01:55:24.874Z,32.49
2023-09-20T01:56:29.937Z,32.41
2023-09-20T01:57:32.376Z,32.66
2023-09-20T01:58:34.339Z,32.69
2023-09-20T01:59:37.241Z,32.79
2023-09-20T02:00:41.412Z,32.59
2023-09-20T02:01:44.734Z,32.52
2023-09-20T02:02:48.101Z,32.57
2023-09-20T02:03:51.982Z,32.89
2023-09-20T02:04:54.401Z,32.86
2023-09-20T02:06:00.153Z,32.79
2023-09-20T02:07:02.237Z,32.52
2023-09-20T02:08:06.292Z,32.74
2023-09-20T02:09:10.453Z,32.69
2023-09-20T02:10:12.685Z,32.77
2023-09-20T02:11:14.833Z,32.66
2023-09-20T02:12:16.778Z,32.80
2023-09-20T02:13:19.760Z,33.09
2023-09-20T02:14:23.270Z,32.61
2023-09-20T02:15:31.240Z,32.91
2023-09-20T02:16:33.570Z,32.82
2023-09-20T02:17:39.546Z,33.04
2023-09-20T02:18:41.807Z,32.80
2023-09-20T02:19:47.243Z,32.81
2023-09-20T02:20:49.436Z,33.06
2023-09-20T02:21:51.632Z,33.03
2023-09-20T02:22:56.890Z,32.91
2023-09-20T02:24:01.321Z,32.66
2023-09-20T02:25:06.009Z,32.88
2023-09-20T02:26:08.273Z,32.86
2023-09-20T02:27:10.467Z,33.04
2023-09-20T02:28:13.239Z,33.04
2023-09-20T02:29:15.321Z,33.00
2023-09-20T02:30:26.053Z,33.03
2023-09-20T02:31:28.525Z,32.99
2023-09-20T02:32:33.470Z,33.13
2023-09-20T02:33:35.389Z,33.40
2023-09-20T02:34:38.850Z,32.93
2023-09-20T02:35:40.998Z,33.38
2023-09-20T02:36:43.095Z,33.15
2023-09-20T02:37:47.309Z,33.39
2023-09-20T02:38:49.498Z,33.32
2023-09-20T02:39:51.573Z,33.19
2023-09-20T02:40:58.199Z,33.08
2023-09-20T02:42:01.298Z,33.40
2023-09-20T02:43:06.513Z,33.30
2023-09-20T02:44:11.254Z,33.35
2023-09-20T02:45:19.039Z,33.32
2023-09-20T02:46:23.135Z,33.43
2023-09-20T02:47:27.914Z,33.36
2023-09-20T02:48:30.128Z,33.32
2023-09-20T02:49:35.654Z,33.42
2023-09-20T02:50:38.313Z,32.98
2023-09-20T02:51:42.943Z,33.21
2023-09-20T02:52:46.842Z,33.27
2023-09-20T02:53:49.501Z,33.34
2023-09-20T02:54:52.716Z,33.28
2023-09-20T02:55:57.787Z,33.45
2023-09-20T02:57:01.421Z,33.34
2023-09-20T02:58:03.796Z,33.46
2023-09-20T02:59:08.481Z,33.59
2023-09-20T03:00:17.531Z,33.53
2023-09-20T03:01:22.342Z,33.38
2023-09-20T03:02:24.720Z,33.39
2023-09-20T03:03:27.063Z,33.44
2023-09-20T03:04:30.074Z,33.34
2023-09-20T03:05:35.459Z,33.48
2023-09-20T03:06:37.710Z,33.37
2023-09-20T03:07:40.336Z,33.43
2023-09-20T03:08:46.077Z,33.46
2023-09-20T03:09:48.407Z,33.66
2023-09-20T03:10:51.343Z,33.44
2023-09-20T03:11:55.660Z,33.47
2023-09-20T03:12:59.521Z,33.50
2023-09-20T03:14:04.639Z,33.54
2023-09-20T03:15:11.440Z,33.49
2023-09-20T03:16:21.124Z,33.48
2023-09-20T03:17:23.135Z,33.37
2023-09-20T03:18:25.255Z,33.43
2023-09-20T03:19:27.717Z,33.65
2023-09-20T03:20:34.178Z,33.50
2023-09-20T03:21:37.442Z,33.51
2023-09-20T03:22:40.104Z,33.55
2023-09-20T03:23:44.093Z,33.66
2023-09-20T03:24:48.769Z,33.66
2023-09-20T03:25:50.810Z,33.77
2023-09-20T03:26:53.622Z,33.79
2023-09-20T03:27:57.379Z,33.63
2023-09-20T03:28:59.530Z,33.64
2023-09-20T03:30:06.859Z,33.58
2023-09-20T03:31:11.926Z,33.54
2023-09-20T03:32:16.489Z,33.68
2023-09-20T03:33:21.909Z,33.64
2023-09-20T03:34:24.035Z,33.61
2023-09-20T03:35:26.802Z,33.64
2023-09-20T03:36:28.907Z,33.80
2023-09-20T03:37:33.917Z,33.74
2023-09-20T03:38:36.590Z,33.64
2023-09-20T03:39:42.586Z,33.71
2023-09-20T03:40:44.900Z,33.54
2023-09-20T03:41:47.252Z,33.77
2023-09-20T03:42:53.726Z,33.72
2023-09-20T03:43:57.562Z,33.67
2023-09-20T03:44:59.743Z,33.69
2023-09-20T03:46:02.839Z,33.79
2023-09-20T03:47:09.737Z,33.78
2023-09-20T03:48:11.803Z,33.81
2023-09-20T03:49:16.196Z,34.10
2023-09-20T03:50:20.772Z,33.77
2023-09-20T03:51:22.676Z,33.46
2023-09-20T03:52:24.916Z,33.88
2023-09-20T03:53:27.176Z,33.83
2023-09-20T03:54:30.861Z,34.11
2023-09-20T03:55:37.316Z,33.92
2023-09-20T03:56:42.606Z,33.88
2023-09-20T03:57:45.066Z,33.64
2023-09-20T03:58:47.195Z,33.66
2023-09-20T03:59:49.184Z,33.84
2023-09-20T04:00:51.790Z,33.82
2023-09-20T04:01:54.829Z,33.80
2023-09-20T04:02:58.218Z,34.06
2023-09-20T04:04:01.802Z,33.96
2023-09-20T04:05:19.202Z,33.88
2023-09-20T04:06:34.703Z,33.74
2023-09-20T04:07:37.279Z,33.99
2023-09-20T04:08:40.073Z,33.89
2023-09-20T04:09:42.981Z,34.04
2023-09-20T04:10:44.863Z,34.10
2023-09-20T04:11:46.901Z,34.01
2023-09-20T04:12:49.830Z,34.04
2023-09-20T04:13:51.815Z,33.99
2023-09-20T04:14:54.699Z,33.92
2023-09-20T04:15:56.882Z,33.96
2023-09-20T04:17:00.569Z,33.98
2023-09-20T04:18:16.517Z,33.85
2023-09-20T04:19:25.145Z,33.92
2023-09-20T04:20:27.687Z,34.05
2023-09-20T04:21:31.527Z,34.06
2023-09-20T04:22:36.780Z,34.13
2023-09-20T04:23:39.662Z,34.08
2023-09-20T04:24:41.640Z,34.00
2023-09-20T04:25:44.129Z,34.07
2023-09-20T04:26:46.072Z,34.09
2023-09-20T04:27:48.071Z,34.18
2023-09-20T04:28:50.220Z,34.12
2023-09-20T04:29:52.140Z,34.34
2023-09-20T04:30:54.044Z,34.30
2023-09-20T04:31:56.938Z,34.28
2023-09-20T04:33:00.373Z,34.32
2023-09-20T04:34:02.715Z,34.49
2023-09-20T04:35:05.740Z,34.50
2023-09-20T04:36:07.936Z,34.25
2023-09-20T04:37:10.397Z,34.40
2023-09-20T04:38:12.774Z,34.50
2023-09-20T04:39:16.474Z,34.43
2023-09-20T04:40:24.632Z,34.30
2023-09-20T04:41:26.882Z,34.51
2023-09-20T04:42:34.973Z,34.67
2023-09-20T04:43:42.408Z,34.46
2023-09-20T04:44:44.519Z,34.49
2023-09-20T04:45:46.470Z,34.12
2023-09-20T04:46:48.843Z,34.66
2023-09-20T04:47:51.106Z,34.67
2023-09-20T04:48:54.878Z,34.52
2023-09-20T04:49:57.266Z,34.42
2023-09-20T04:50:59.358Z,34.70
2023-09-20T04:52:02.253Z,34.64
2023-09-20T04:53:05.700Z,34.62
2023-09-20T04:54:09.085Z,34.50
2023-09-20T04:55:14.656Z,34.67
2023-09-20T04:56:17.591Z,34.73
2023-09-20T04:57:19.607Z,34.53
2023-09-20T04:58:21.576Z,34.51
2023-09-20T04:59:24.257Z,34.99
2023-09-20T05:00:34.990Z,34.62
2023-09-20T05:01:37.513Z,34.63
2023-09-20T05:02:39.685Z,34.64
2023-09-20T05:03:42.388Z,34.80
2023-09-20T05:04:44.405Z,34.79
2023-09-20T05:05:53.545Z,34.97
2023-09-20T05:06:55.703Z,34.62
2023-09-20T05:08:00.741Z,34.91
2023-09-20T05:09:04.696Z,34.68
2023-09-20T05:10:07.959Z,34.67
2023-09-20T05:11:11.781Z,34.72
2023-09-20T05:12:13.922Z,34.96
2023-09-20T05:13:18.013Z,34.92
2023-09-20T05:14:20.318Z,34.81
2023-09-20T05:15:24.529Z,34.80
2023-09-20T05:16:26.674Z,35.02
2023-09-20T05:17:29.158Z,34.41
2023-09-20T05:18:33.297Z,34.95
2023-09-20T05:19:36.437Z,35.09
2023-09-20T05:20:38.408Z,35.06
2023-09-20T05:21:41.569Z,34.84
2023-09-20T05:22:43.748Z,34.85
2023-09-20T05:23:45.964Z,35.18
2023-09-20T05:24:47.939Z,35.12
2023-09-20T05:25:50.929Z,35.34
2023-09-20T05:26:52.887Z,35.22
2023-09-20T05:27:56.057Z,35.09
2023-09-20T05:28:59.338Z,34.92
2023-09-20T05:30:02.115Z,35.15
2023-09-20T05:31:06.975Z,35.08
2023-09-20T05:32:09.407Z,35.21
2023-09-20T05:33:14.816Z,34.77
2023-09-20T05:34:16.724Z,35.07
2023-09-20T05:35:19.556Z,35.10
2023-09-20T05:36:22.449Z,35.20
2023-09-20T05:37:24.308Z,35.21
2023-09-20T05:38:27.248Z,35.25
2023-09-20T05:39:31.129Z,35.07
2023-09-20T05:40:34.298Z,35.24
2023-09-20T05:41:37.722Z,35.36
2023-09-20T05:42:40.695Z,35.16
2023-09-20T05:43:44.112Z,35.19
2023-09-20T05:44:46.058Z,35.13
2023-09-20T05:45:48.048Z,35.46
2023-09-20T05:46:51.480Z,35.30
2023-09-20T05:47:55.745Z,35.47
2023-09-20T05:48:58.471Z,35.26
2023-09-20T05:50:00.654Z,35.51
2023-09-20T05:51:03.257Z,35.34
2023-09-20T05:52:07.628Z,35.32
2023-09-20T05:53:12.426Z,35.51
2023-09-20T05:54:16.774Z,35.39
2023-09-20T05:55:20.096Z,35.43
2023-09-20T05:56:22.486Z,35.31
2023-09-20T05:57:24.929Z,35.47
2023-09-20T05:58:31.474Z,35.50
2023-09-20T05:59:34.766Z,35.69
2023-09-20T06:00:37.811Z,35.57
2023-09-20T06:01:41.727Z,35.39
2023-09-20T06:02:46.033Z,35.47
2023-09-20T06:03:48.298Z,35.62
2023-09-20T06:04:51.996Z,35.67
2023-09-20T06:05:54.086Z,35.59
2023-09-20T06:06:56.183Z,35.87
2023-09-20T06:07:59.084Z,35.65
2023-09-20T06:09:01.181Z,35.55
2023-09-20T06:10:03.496Z,35.73
2023-09-20T06:11:05.759Z,35.67
2023-09-20T06:12:08.047Z,36.08
2023-09-20T06:13:10.911Z,35.70
2023-09-20T06:14:13.143Z,35.77
2023-09-20T06:15:15.624Z,36.12
2023-09-20T06:16:18.388Z,35.95
2023-09-20T06:17:20.355Z,35.91
2023-09-20T06:18:22.998Z,35.94
2023-09-20T06:19:26.693Z,35.92
2023-09-20T06:20:29.469Z,35.95
2023-09-20T06:21:32.806Z,35.77
2023-09-20T06:22:37.101Z,36.07
2023-09-20T06:23:40.874Z,35.75
2023-09-20T06:24:46.379Z,36.04
2023-09-20T06:25:48.798Z,36.03
2023-09-20T06:26:50.670Z,35.90
2023-09-20T06:27:54.667Z,36.03
2023-09-20T06:28:57.083Z,36.05
2023-09-20T06:30:08.054Z,36.25
2023-09-20T06:31:17.594Z,35.89
2023-09-20T06:32:21.627Z,35.96
2023-09-20T06:33:24.052Z,36.00
2023-09-20T06:34:27.477Z,35.94
2023-09-20T06:35:29.908Z,36.25
2023-09-20T06:36:31.865Z,36.10
2023-09-20T06:37:35.276Z,36.09
2023-09-20T06:38:37.459Z,36.23
2023-09-20T06:39:45.298Z,36.24
2023-09-20T06:40:57.125Z,36.17
2023-09-20T06:41:59.607Z,36.26
2023-09-20T06:43:02.823Z,36.43
2023-09-20T06:44:05.445Z,36.32
2023-09-20T06:45:10.255Z,36.58
2023-09-20T06:46:13.353Z,36.39
2023-09-20T06:47:16.194Z,36.42
2023-09-20T06:48:28.612Z,36.38
2023-09-20T06:49:31.305Z,36.32
2023-09-20T06:50:33.272Z,36.40
2023-09-20T06:51:35.799Z,36.15
2023-09-20T06:52:37.888Z,36.36
2023-09-20T06:53:39.839Z,36.68
2023-09-20T06:54:44.236Z,36.21
2023-09-20T06:55:49.097Z,36.76
2023-09-20T06:56:52.510Z,36.53
2023-09-20T06:58:08.899Z,36.54
2023-09-20T06:59:18.120Z,36.28
2023-09-20T07:00:28.101Z,36.33
2023-09-20T07:01:30.865Z,36.39
2023-09-20T07:02:33.842Z,36.45
2023-09-20T07:03:35.868Z,36.29
2023-09-20T07:04:40.546Z,36.45
2023-09-20T07:05:43.017Z,36.36
2023-09-20T07:06:45.318Z,36.43
2023-09-20T07:07:48.530Z,36.42
2023-09-20T07:08:50.631Z,36.43
2023-09-20T07:09:52.938Z,36.50
2023-09-20T07:10:55.140Z,36.33
2023-09-20T07:11:57.173Z,35.91
2023-09-20T07:12:59.327Z,36.52
2023-09-20T07:14:07.138Z,36.40
2023-09-20T07:15:10.370Z,36.26
2023-09-20T07:16:12.664Z,36.16
2023-09-20T07:17:15.594Z,36.41
2023-09-20T07:18:19.331Z,36.20
2023-09-20T07:19:25.143Z,36.29
2023-09-20T07:20:28.128Z,36.38
2023-09-20T07:21:30.434Z,36.13
2023-09-20T07:22:32.355Z,36.27
2023-09-20T07:23:36.297Z,36.09
2023-09-20T07:24:38.483Z,36.18
2023-09-20T07:25:42.702Z,36.05
2023-09-20T07:26:45.199Z,36.17
2023-09-20T07:27:50.648Z,36.09
2023-09-20T07:28:52.427Z,36.39
2023-09-20T07:29:54.724Z,36.01
2023-09-20T07:30:57.299Z,36.04
2023-09-20T07:32:01.238Z,36.23
2023-09-20T07:33:11.841Z,36.41
2023-09-20T07:34:15.362Z,35.80
2023-09-20T07:35:27.897Z,36.10
2023-09-20T07:36:38.058Z,36.05
2023-09-20T07:37:44.480Z,36.29
2023-09-20T07:38:47.176Z,36.09
2023-09-20T07:39:51.802Z,36.03
2023-09-20T07:40:55.394Z,36.21
2023-09-20T07:41:59.623Z,35.96
2023-09-20T07:43:18.728Z,36.20
2023-09-20T07:44:25.787Z,35.97
2023-09-20T07:45:37.061Z,36.21
2023-09-20T07:46:40.577Z,36.06
2023-09-20T07:47:44.861Z,36.24
2023-09-20T07:48:51.490Z,36.04
2023-09-20T07:49:54.668Z,36.13
2023-09-20T07:50:56.724Z,36.09
2023-09-20T07:51:58.553Z,36.10
2023-09-20T07:53:02.234Z,36.00
2023-09-20T07:54:07.320Z,36.00
2023-09-20T07:55:09.410Z,36.02
2023-09-20T07:56:13.676Z,35.97
2023-09-20T07:57:16.748Z,35.91
2023-09-20T07:58:21.181Z,35.93
2023-09-20T07:59:27.737Z,36.13
2023-09-20T08:00:30.046Z,35.92
2023-09-20T08:01:34.979Z,35.78
2023-09-20T08:02:38.302Z,36.09
2023-09-20T08:03:47.658Z,35.85
2023-09-20T08:04:49.611Z,35.82
2023-09-20T08:05:55.569Z,35.86
2023-09-20T08:06:57.700Z,35.99
2023-09-20T08:08:00.000Z,35.72
2023-09-20T08:09:04.174Z,35.86
2023-09-20T08:10:07.565Z,35.82
2023-09-20T08:11:14.034Z,35.72
2023-09-20T08:12:18.082Z,36.12
2023-09-20T08:13:20.625Z,35.74
2023-09-20T08:14:23.860Z,35.91
2023-09-20T08:15:26.254Z,35.46
2023-09-20T08:16:46.975Z,35.80
2023-09-20T08:18:13.719Z,35.70
2023-09-20T08:19:15.673Z,35.46
2023-09-20T08:20:22.354Z,35.69
2023-09-20T08:21:26.738Z,35.64
2023-09-20T08:22:46.883Z,35.57
2023-09-20T08:24:07.034Z,35.49
2023-09-20T08:25:28.018Z,35.53
2023-09-20T08:26:48.418Z,35.70
2023-09-20T08:28:09.085Z,35.30
2023-09-20T08:29:29.337Z,35.42
2023-09-20T08:30:49.964Z,35.45
2023-09-20T08:32:12.004Z,35.57
2023-09-20T08:33:32.515Z,35.63
2023-09-20T08:34:53.365Z,35.50
2023-09-20T08:36:13.642Z,35.52
2023-09-20T08:37:33.913Z,35.55
2023-09-20T08:38:54.572Z,35.62
2023-09-20T08:40:14.576Z,35.51
2023-09-20T08:41:35.090Z,35.68
2023-09-20T08:42:56.539Z,35.72
2023-09-20T08:44:17.841Z,35.59
2023-09-20T08:45:44.910Z,35.57
2023-09-20T08:47:08.202Z,35.36
2023-09-20T08:48:34.742Z,35.42
2023-09-20T08:49:56.599Z,35.69
2023-09-20T08:53:29.168Z,35.91
2023-09-20T08:54:49.681Z,35.75
2023-09-20T08:56:10.154Z,35.81
2023-09-20T08:57:32.636Z,35.76
2023-09-20T08:58:54.050Z,35.93
2023-09-20T08:59:56.933Z,35.86
2023-09-20T09:01:00.612Z,35.74
2023-09-20T09:02:13.399Z,35.92
2023-09-20T09:03:17.217Z,35.97
2023-09-20T09:04:22.608Z,35.91
2023-09-20T09:05:28.657Z,35.88
2023-09-20T09:06:32.095Z,35.93
2023-09-20T09:07:34.030Z,36.09
2023-09-20T09:08:36.086Z,35.93
2023-09-20T09:09:39.947Z,36.01
2023-09-20T09:10:41.976Z,35.98
2023-09-20T09:11:46.971Z,36.07
2023-09-20T09:12:49.635Z,36.20
2023-09-20T09:13:53.255Z,35.92
2023-09-20T09:14:55.661Z,36.01
2023-09-20T09:15:57.749Z,36.13
2023-09-20T09:17:04.520Z,36.05
2023-09-20T09:18:21.898Z,35.55
2023-09-20T09:19:24.301Z,35.99
2023-09-20T09:20:29.845Z,36.01
2023-09-20T09:21:32.137Z,36.03
2023-09-20T09:22:36.308Z,36.02
2023-09-20T09:23:40.233Z,35.74
2023-09-20T09:24:49.582Z,35.94
2023-09-20T09:25:51.458Z,36.08
2023-09-20T09:27:06.540Z,35.89
2023-09-20T09:28:08.543Z,36.01
2023-09-20T09:29:21.243Z,35.73
2023-09-20T09:30:26.063Z,36.08
2023-09-20T09:31:31.216Z,35.97
2023-09-20T09:32:38.244Z,36.05
2023-09-20T09:33:41.241Z,35.89
2023-09-20T09:34:43.666Z,35.94
2023-09-20T09:35:48.740Z,35.79
2023-09-20T09:36:50.741Z,35.98
2023-09-20T09:37:52.749Z,36.23
2023-09-20T09:39:24.226Z,35.86
2023-09-20T09:40:30.772Z,35.64
2023-09-20T09:41:46.172Z,35.97
2023-09-20T09:42:49.275Z,35.84
2023-09-20T09:43:59.965Z,35.77
2023-09-20T09:45:04.645Z,35.86
2023-09-20T09:46:11.492Z,36.27
2023-09-20T09:47:14.908Z,35.91
2023-09-20T09:48:25.607Z,35.92
2023-09-20T09:49:27.801Z,35.88
2023-09-20T09:50:30.317Z,35.89
2023-09-20T09:51:33.878Z,35.71
2023-09-20T09:52:40.298Z,35.93
2023-09-20T09:53:46.031Z,35.96
2023-09-20T09:54:48.360Z,35.97
2023-09-20T09:55:51.548Z,35.62
2023-09-20T09:56:53.565Z,35.92
2023-09-20T09:57:55.729Z,35.60
2023-09-20T09:58:57.932Z,35.64
2023-09-20T10:00:00.121Z,35.41
2023-09-20T10:01:07.792Z,35.89
2023-09-20T10:02:30.215Z,35.51
2023-09-20T10:03:35.599Z,35.63
2023-09-20T10:04:40.134Z,35.91
2023-09-20T10:05:45.829Z,35.56
2023-09-20T10:07:02.757Z,35.86
2023-09-20T10:08:08.385Z,35.60
2023-09-20T10:09:13.419Z,35.58
2023-09-20T10:10:17.637Z,35.68
2023-09-20T10:11:24.630Z,35.83
2023-09-20T10:12:26.935Z,35.64
2023-09-20T10:13:30.933Z,35.74
2023-09-20T10:14:37.539Z,35.43
2023-09-20T10:15:39.823Z,35.66
2023-09-20T10:16:44.011Z,35.54
2023-09-20T10:17:56.663Z,35.78
2023-09-20T10:19:02.147Z,35.36
2023-09-20T10:20:08.632Z,35.56
2023-09-20T10:21:16.105Z,35.37
2023-09-20T10:22:24.924Z,35.42
2023-09-20T10:23:28.443Z,35.67
2023-09-20T10:24:30.756Z,35.31
2023-09-20T10:25:35.941Z,35.59
2023-09-20T10:26:41.958Z,35.55
2023-09-20T10:27:44.139Z,35.35
2023-09-20T10:28:47.143Z,35.32
2023-09-20T10:30:10.367Z,35.30
2023-09-20T10:31:18.616Z,35.38
2023-09-20T10:32:23.493Z,34.98
2023-09-20T10:33:50.125Z,35.33
2023-09-20T10:35:21.218Z,35.13
2023-09-20T10:36:29.932Z,34.88
2023-09-20T10:37:33.375Z,35.12
2023-09-20T10:38:35.387Z,34.92
2023-09-20T10:39:40.032Z,35.12
2023-09-20T10:40:56.269Z,35.14
2023-09-20T10:42:11.220Z,34.67
2023-09-20T10:43:16.864Z,34.73
2023-09-20T10:44:39.555Z,34.98
2023-09-20T10:45:42.418Z,34.93
2023-09-20T10:46:49.728Z,35.01
2023-09-20T10:47:54.048Z,35.23
2023-09-20T10:48:57.669Z,34.97
2023-09-20T10:50:00.694Z,35.06
2023-09-20T10:51:05.073Z,35.19
2023-09-20T10:52:06.918Z,34.91
2023-09-20T10:53:11.564Z,34.98
2023-09-20T10:54:24.656Z,35.13
2023-09-20T10:55:29.839Z,34.84
2023-09-20T10:56:44.653Z,35.02
2023-09-20T10:57:51.839Z,35.14
2023-09-20T10:58:53.827Z,34.73
2023-09-20T10:59:55.756Z,34.67
2023-09-20T11:00:58.775Z,34.70
2023-09-20T11:02:06.479Z,35.11
2023-09-20T11:03:09.562Z,34.88
2023-09-20T11:04:11.553Z,34.61
2023-09-20T11:05:15.251Z,35.04
2023-09-20T11:06:17.809Z,34.67
2023-09-20T11:07:19.931Z,34.93
2023-09-20T11:08:22.769Z,34.69
2023-09-20T11:09:26.759Z,34.89
2023-09-20T11:10:29.472Z,34.48
2023-09-20T11:11:32.761Z,34.83
2023-09-20T11:12:34.701Z,34.77
2023-09-20T11:13:36.548Z,34.79
2023-09-20T11:14:45.891Z,34.85
2023-09-20T11:15:48.262Z,34.40
2023-09-20T11:16:50.502Z,34.60
2023-09-20T11:17:52.984Z,34.71
2023-09-20T11:18:55.960Z,34.67
2023-09-20T11:19:59.331Z,34.40
2023-09-20T11:21:02.336Z,34.72
2023-09-20T11:22:04.720Z,34.35
2023-09-20T11:23:08.085Z,34.45
2023-09-20T11:24:13.610Z,34.13
2023-09-20T11:25:16.321Z,34.54
2023-09-20T11:26:31.391Z,34.21
2023-09-20T11:27:35.973Z,34.02
2023-09-20T11:28:38.467Z,34.35
2023-09-20T11:29:45.073Z,34.70
2023-09-20T11:30:52.567Z,34.12
2023-09-20T11:32:00.588Z,33.92
2023-09-20T11:33:02.789Z,34.52
2023-09-20T11:34:09.654Z,34.13
2023-09-20T11:35:13.013Z,34.35
2023-09-20T11:36:20.459Z,34.35
2023-09-20T11:37:23.825Z,33.92
2023-09-20T11:38:27.646Z,33.85
2023-09-20T11:39:29.745Z,33.63
2023-09-20T11:40:33.107Z,34.00
2023-09-20T11:41:37.305Z,33.77
2023-09-20T11:42:44.416Z,33.87
2023-09-20T11:43:49.391Z,33.87
2023-09-20T11:45:06.443Z,33.32
2023-09-20T11:46:18.257Z,33.44
2023-09-20T11:47:21.168Z,33.60
2023-09-20T11:48:24.032Z,33.44
2023-09-20T11:49:29.118Z,33.21
2023-09-20T11:50:31.281Z,33.68
2023-09-20T11:51:36.359Z,33.81
2023-09-20T11:52:38.407Z,33.54
2023-09-20T11:53:45.380Z,33.25
2023-09-20T11:54:48.956Z,33.52
2023-09-20T11:55:54.668Z,33.40
2023-09-20T11:57:03.194Z,33.23
2023-09-20T11:58:05.176Z,33.18
2023-09-20T11:59:12.560Z,33.21
2023-09-20T12:00:20.108Z,33.66
2023-09-20T12:01:26.604Z,33.35
2023-09-20T12:02:29.989Z,33.62
2023-09-20T12:03:32.168Z,33.61
2023-09-20T12:04:34.252Z,33.48
2023-09-20T12:05:37.345Z,33.06
2023-09-20T12:06:39.233Z,33.52
2023-09-20T12:07:41.430Z,33.73
2023-09-20T12:08:45.090Z,33.52
2023-09-20T12:09:47.242Z,33.69
2023-09-20T12:10:49.123Z,33.34
2023-09-20T12:11:51.760Z,33.69
2023-09-20T12:12:55.108Z,33.63
2023-09-20T12:13:58.097Z,33.57
2023-09-20T12:14:59.995Z,33.56
2023-09-20T12:16:01.902Z,33.60
2023-09-20T12:17:03.886Z,33.23
2023-09-20T12:18:06.434Z,33.29
2023-09-20T12:19:09.485Z,33.36
2023-09-20T12:20:13.310Z,33.12
2023-09-20T12:21:16.846Z,32.97
2023-09-20T12:22:21.238Z,32.82
2023-09-20T12:23:24.239Z,32.77
2023-09-20T12:24:26.409Z,33.15
2023-09-20T12:25:28.377Z,32.69
2023-09-20T12:26:30.340Z,32.63
2023-09-20T12:27:32.334Z,33.20
2023-09-20T12:28:34.337Z,32.78
2023-09-20T12:29:36.290Z,33.06
2023-09-20T12:30:40.960Z,32.84
2023-09-20T12:31:43.030Z,33.06
2023-09-20T12:32:45.152Z,33.28
2023-09-20T12:33:48.060Z,32.98
2023-09-20T12:34:52.865Z,33.09
2023-09-20T12:35:55.730Z,32.63
2023-09-20T12:36:58.088Z,33.16
2023-09-20T12:38:00.114Z,33.26
2023-09-20T12:39:02.674Z,33.06
2023-09-20T12:40:09.282Z,33.20
2023-09-20T12:41:12.776Z,33.19
2023-09-20T12:42:14.824Z,32.62
2023-09-20T12:43:17.241Z,32.82
2023-09-20T12:44:19.913Z,32.74
2023-09-20T12:45:24.529Z,33.09
2023-09-20T12:46:27.655Z,33.00
2023-09-20T12:47:29.664Z,32.98
2023-09-20T12:48:33.472Z,33.48
2023-09-20T12:49:37.980Z,33.03
2023-09-20T12:50:42.731Z,33.29
2023-09-20T12:51:44.765Z,33.37
2023-09-20T12:52:49.858Z,33.01
2023-09-20T12:53:51.965Z,33.27
2023-09-20T12:54:53.996Z,33.11
2023-09-20T12:55:55.931Z,33.51
2023-09-20T12:57:01.058Z,33.26
2023-09-20T12:58:03.204Z,33.13
2023-09-20T12:59:05.241Z,32.99
2023-09-20T13:00:15.386Z,33.20
2023-09-20T13:01:20.477Z,32.91
2023-09-20T13:02:24.628Z,32.99
2023-09-20T13:03:30.303Z,33.32
2023-09-20T13:04:32.557Z,33.35
2023-09-20T13:05:40.295Z,32.79
2023-09-20T13:06:44.588Z,32.84
2023-09-20T13:07:46.481Z,32.92
2023-09-20T13:08:49.770Z,33.30
2023-09-20T13:09:51.706Z,32.84
2023-09-20T13:10:58.176Z,32.92
2023-09-20T13:12:01.102Z,33.37
2023-09-20T13:13:04.369Z,32.83
2023-09-20T13:14:06.267Z,32.57
2023-09-20T13:15:15.500Z,33.03
2023-09-20T13:16:18.192Z,33.23
2023-09-20T13:17:21.938Z,32.56
2023-09-20T13:18:24.311Z,33.26
2023-09-20T13:19:26.231Z,32.73
2023-09-20T13:20:28.954Z,33.19
2023-09-20T13:21:30.881Z,32.62
2023-09-20T13:22:32.810Z,32.67
2023-09-20T13:23:36.155Z,32.71
2023-09-20T13:24:40.601Z,32.89
2023-09-20T13:25:43.902Z,33.03
2023-09-20T13:26:46.283Z,32.83
2023-09-20T13:27:54.389Z,32.32
2023-09-20T13:28:56.806Z,32.00
2023-09-20T13:29:58.973Z,32.15
2023-09-20T13:31:03.328Z,32.52
2023-09-20T13:32:09.508Z,32.23
2023-09-20T13:33:13.311Z,31.94
2023-09-20T13:34:17.397Z,31.50
2023-09-20T13:35:22.610Z,31.98
2023-09-20T13:36:26.388Z,31.61
2023-09-20T13:37:29.094Z,31.67
2023-09-20T13:38:31.146Z,31.74
2023-09-20T13:39:33.365Z,31.12
2023-09-20T13:40:37.294Z,30.91
2023-09-20T13:41:40.637Z,31.06
2023-09-20T13:42:45.447Z,31.47
2023-09-20T13:43:47.387Z,31.55
2023-09-20T13:44:51.527Z,31.37
2023-09-20T13:45:54.493Z,31.12
2023-09-20T13:46:57.766Z,31.06
2023-09-20T13:47:59.781Z,30.84
2023-09-20T13:49:01.935Z,30.98
2023-09-20T13:50:08.424Z,30.84
2023-09-20T13:51:20.188Z,30.66
2023-09-20T13:52:22.180Z,31.01
2023-09-20T13:53:24.109Z,30.85
2023-09-20T13:54:26.091Z,30.59
2023-09-20T13:55:32.629Z,30.14
2023-09-20T13:56:37.864Z,30.33
2023-09-20T13:57:39.780Z,30.24